Rossmoor, California
Current Conditions -  °F | °C
As of 11:58 PM on Monday 20 Oct 2014 (Local Time) from KSLI Reporting Station
Clear Clear  
Wind Chill: 62°   Ceiling: Unl
Heat Index: 62°   Visibility: 10mi
Dew Point: 60°   Wind: 2mph
Humidity: 94%   Direction: 110°ESE
Pressure: 29.9"   Gusts: NA
Location:  33.7944°N, 118.065°W
Report Text: KSLI 210658Z AUTO 11002KT 10SM CLR 17/16 A2990 RMK AO2 SLP128 T01670158
Loading
Personal Weather Stations






























Interactive Weather Map
Tropical Storm Tracking
New forecast layout! Learn more

10-Day Weather Forecast

Advertisements
Track Severe Weather on mobile